sensor_id;sensor_type;location;lat;lon;timestamp;temperature;humidity
22290;DHT22;11313;50.116;8.424;2023-06-19T00:02:01;24.50;48.50
22290;DHT22;11313;50.116;8.424;2023-06-19T00:04:26;24.50;48.50
22290;DHT22;11313;50.116;8.424;2023-06-19T00:06:53;24.50;48.50
22290;DHT22;11313;50.116;8.424;2023-06-19T00:09:19;24.50;48.50
22290;DHT22;11313;50.116;8.424;2023-06-19T00:11:44;24.50;48.60
22290;DHT22;11313;50.116;8.424;2023-06-19T00:14:10;24.50;48.60
22290;DHT22;11313;50.116;8.424;2023-06-19T00:16:36;24.50;48.60
22290;DHT22;11313;50.116;8.424;2023-06-19T00:19:01;24.50;48.60
22290;DHT22;11313;50.116;8.424;2023-06-19T00:21:29;24.50;48.60
22290;DHT22;11313;50.116;8.424;2023-06-19T00:23:55;24.50;48.60
22290;DHT22;11313;50.116;8.424;2023-06-19T00:26:21;24.50;48.60
22290;DHT22;11313;50.116;8.424;2023-06-19T00:28:48;24.50;48.60
22290;DHT22;11313;50.116;8.424;2023-06-19T00:31:14;24.50;48.60
22290;DHT22;11313;50.116;8.424;2023-06-19T00:33:41;24.50;48.60
22290;DHT22;11313;50.116;8.424;2023-06-19T00:36:10;24.50;48.60
22290;DHT22;11313;50.116;8.424;2023-06-19T00:38:36;24.50;48.60
22290;DHT22;11313;50.116;8.424;2023-06-19T00:41:03;24.60;48.60
22290;DHT22;11313;50.116;8.424;2023-06-19T00:43:28;24.50;48.60
22290;DHT22;11313;50.116;8.424;2023-06-19T00:45:56;24.50;48.60
22290;DHT22;11313;50.116;8.424;2023-06-19T00:48:21;24.50;48.60
22290;DHT22;11313;50.116;8.424;2023-06-19T00:50:49;24.60;48.70
22290;DHT22;11313;50.116;8.424;2023-06-19T00:53:14;24.60;48.70
22290;DHT22;11313;50.116;8.424;2023-06-19T00:55:40;24.60;48.70
22290;DHT22;11313;50.116;8.424;2023-06-19T00:58:06;24.60;48.70
22290;DHT22;11313;50.116;8.424;2023-06-19T01:00:31;24.60;48.70
22290;DHT22;11313;50.116;8.424;2023-06-19T01:02:58;24.60;48.70
22290;DHT22;11313;50.116;8.424;2023-06-19T01:05:24;24.60;48.70
22290;DHT22;11313;50.116;8.424;2023-06-19T01:07:59;24.60;48.70
22290;DHT22;11313;50.116;8.424;2023-06-19T01:10:36;24.60;48.70
22290;DHT22;11313;50.116;8.424;2023-06-19T01:13:22;24.60;48.70
22290;DHT22;11313;50.116;8.424;2023-06-19T01:15:48;24.60;48.80
22290;DHT22;11313;50.116;8.424;2023-06-19T01:18:15;24.60;48.70
22290;DHT22;11313;50.116;8.424;2023-06-19T01:20:41;24.60;48.70
22290;DHT22;11313;50.116;8.424;2023-06-19T01:23:11;24.60;48.70
22290;DHT22;11313;50.116;8.424;2023-06-19T01:25:37;24.60;48.70
22290;DHT22;11313;50.116;8.424;2023-06-19T01:28:03;24.60;48.70
22290;DHT22;11313;50.116;8.424;2023-06-19T01:30:31;24.60;48.70
22290;DHT22;11313;50.116;8.424;2023-06-19T01:33:02;24.60;48.70
22290;DHT22;11313;50.116;8.424;2023-06-19T01:35:33;24.60;48.70
22290;DHT22;11313;50.116;8.424;2023-06-19T01:38:00;24.60;48.70
22290;DHT22;11313;50.116;8.424;2023-06-19T01:40:27;24.60;48.70
22290;DHT22;11313;50.116;8.424;2023-06-19T01:42:57;24.60;48.70
22290;DHT22;11313;50.116;8.424;2023-06-19T01:45:25;24.60;48.70
22290;DHT22;11313;50.116;8.424;2023-06-19T01:47:50;24.60;48.70
22290;DHT22;11313;50.116;8.424;2023-06-19T01:50:16;24.60;48.70
22290;DHT22;11313;50.116;8.424;2023-06-19T01:52:42;24.60;48.70
22290;DHT22;11313;50.116;8.424;2023-06-19T01:55:08;24.60;48.70
22290;DHT22;11313;50.116;8.424;2023-06-19T01:57:34;24.70;48.70
22290;DHT22;11313;50.116;8.424;2023-06-19T02:00:01;24.70;48.70
22290;DHT22;11313;50.116;8.424;2023-06-19T02:02:27;24.70;48.70
22290;DHT22;11313;50.116;8.424;2023-06-19T02:04:52;24.70;48.80
22290;DHT22;11313;50.116;8.424;2023-06-19T02:07:18;24.70;48.70
22290;DHT22;11313;50.116;8.424;2023-06-19T02:09:43;24.60;48.70
22290;DHT22;11313;50.116;8.424;2023-06-19T02:12:09;24.70;48.70
22290;DHT22;11313;50.116;8.424;2023-06-19T02:14:34;24.70;48.80
22290;DHT22;11313;50.116;8.424;2023-06-19T02:17:00;24.70;48.80
22290;DHT22;11313;50.116;8.424;2023-06-19T02:19:25;24.70;48.70
22290;DHT22;11313;50.116;8.424;2023-06-19T02:21:51;24.70;48.70
22290;DHT22;11313;50.116;8.424;2023-06-19T02:24:16;24.70;48.70
22290;DHT22;11313;50.116;8.424;2023-06-19T02:26:42;24.70;48.70
22290;DHT22;11313;50.116;8.424;2023-06-19T02:29:09;24.70;48.80
22290;DHT22;11313;50.116;8.424;2023-06-19T02:31:35;24.70;48.70
22290;DHT22;11313;50.116;8.424;2023-06-19T02:34:00;24.70;48.70
22290;DHT22;11313;50.116;8.424;2023-06-19T02:36:26;24.70;48.80
22290;DHT22;11313;50.116;8.424;2023-06-19T02:38:51;24.70;48.70
22290;DHT22;11313;50.116;8.424;2023-06-19T02:41:18;24.70;48.70
22290;DHT22;11313;50.116;8.424;2023-06-19T02:43:45;24.70;48.70
22290;DHT22;11313;50.116;8.424;2023-06-19T02:46:14;24.70;48.70
22290;DHT22;11313;50.116;8.424;2023-06-19T02:48:40;24.70;48.70
22290;DHT22;11313;50.116;8.424;2023-06-19T02:51:05;24.70;48.70
22290;DHT22;11313;50.116;8.424;2023-06-19T02:53:31;24.70;48.70
22290;DHT22;11313;50.116;8.424;2023-06-19T02:55:56;24.70;48.70
22290;DHT22;11313;50.116;8.424;2023-06-19T02:58:22;24.70;48.80
22290;DHT22;11313;50.116;8.424;2023-06-19T03:00:48;24.70;48.70
22290;DHT22;11313;50.116;8.424;2023-06-19T03:03:13;24.70;48.70
22290;DHT22;11313;50.116;8.424;2023-06-19T03:05:39;24.70;48.70
22290;DHT22;11313;50.116;8.424;2023-06-19T03:08:04;24.70;48.70
22290;DHT22;11313;50.116;8.424;2023-06-19T03:10:30;24.70;48.70
22290;DHT22;11313;50.116;8.424;2023-06-19T03:12:56;24.70;48.70
22290;DHT22;11313;50.116;8.424;2023-06-19T03:15:24;24.70;48.70
22290;DHT22;11313;50.116;8.424;2023-06-19T03:17:49;24.70;48.70
22290;DHT22;11313;50.116;8.424;2023-06-19T03:20:15;24.70;48.70
22290;DHT22;11313;50.116;8.424;2023-06-19T03:22:41;24.70;48.70
22290;DHT22;11313;50.116;8.424;2023-06-19T03:25:07;24.70;48.70
22290;DHT22;11313;50.116;8.424;2023-06-19T03:27:33;24.70;48.70
22290;DHT22;11313;50.116;8.424;2023-06-19T03:29:58;24.70;49.30
22290;DHT22;11313;50.116;8.424;2023-06-19T03:32:24;24.70;48.70
22290;DHT22;11313;50.116;8.424;2023-06-19T03:34:49;24.70;48.70
22290;DHT22;11313;50.116;8.424;2023-06-19T03:37:15;24.70;48.70
22290;DHT22;11313;50.116;8.424;2023-06-19T03:39:41;24.70;48.70
22290;DHT22;11313;50.116;8.424;2023-06-19T03:42:07;24.70;48.70
22290;DHT22;11313;50.116;8.424;2023-06-19T03:44:33;24.70;48.70
22290;DHT22;11313;50.116;8.424;2023-06-19T03:46:58;24.70;48.70
22290;DHT22;11313;50.116;8.424;2023-06-19T03:49:23;24.80;48.70
22290;DHT22;11313;50.116;8.424;2023-06-19T03:51:49;24.70;48.70
22290;DHT22;11313;50.116;8.424;2023-06-19T03:54:14;24.70;48.70
22290;DHT22;11313;50.116;8.424;2023-06-19T03:56:40;24.70;48.70
22290;DHT22;11313;50.116;8.424;2023-06-19T03:59:05;24.80;48.70
22290;DHT22;11313;50.116;8.424;2023-06-19T04:01:31;24.80;48.80
22290;DHT22;11313;50.116;8.424;2023-06-19T04:03:56;24.80;48.70
22290;DHT22;11313;50.116;8.424;2023-06-19T04:06:22;24.80;48.80
22290;DHT22;11313;50.116;8.424;2023-06-19T04:08:48;24.80;48.80
22290;DHT22;11313;50.116;8.424;2023-06-19T04:11:13;24.80;48.70
22290;DHT22;11313;50.116;8.424;2023-06-19T04:13:39;24.80;48.70
22290;DHT22;11313;50.116;8.424;2023-06-19T04:16:04;24.80;48.70
22290;DHT22;11313;50.116;8.424;2023-06-19T04:18:30;24.80;48.80
22290;DHT22;11313;50.116;8.424;2023-06-19T04:20:55;24.80;48.70
22290;DHT22;11313;50.116;8.424;2023-06-19T04:23:21;24.80;48.70
22290;DHT22;11313;50.116;8.424;2023-06-19T04:25:46;24.80;48.70
22290;DHT22;11313;50.116;8.424;2023-06-19T04:28:12;24.80;48.70
22290;DHT22;11313;50.116;8.424;2023-06-19T04:30:37;24.80;48.80
22290;DHT22;11313;50.116;8.424;2023-06-19T04:33:05;24.80;48.90
22290;DHT22;11313;50.116;8.424;2023-06-19T04:35:32;24.80;48.40
22290;DHT22;11313;50.116;8.424;2023-06-19T04:37:57;24.80;49.00
22290;DHT22;11313;50.116;8.424;2023-06-19T04:40:26;24.80;48.90
22290;DHT22;11313;50.116;8.424;2023-06-19T04:42:52;24.80;49.00
22290;DHT22;11313;50.116;8.424;2023-06-19T04:45:19;24.80;49.00
22290;DHT22;11313;50.116;8.424;2023-06-19T04:47:45;24.80;49.00
22290;DHT22;11313;50.116;8.424;2023-06-19T04:50:10;24.80;49.00
22290;DHT22;11313;50.116;8.424;2023-06-19T04:52:36;24.80;49.00
22290;DHT22;11313;50.116;8.424;2023-06-19T04:55:05;24.80;49.10
22290;DHT22;11313;50.116;8.424;2023-06-19T04:57:30;24.80;49.00
22290;DHT22;11313;50.116;8.424;2023-06-19T04:59:56;24.80;49.00
22290;DHT22;11313;50.116;8.424;2023-06-19T05:02:21;24.80;49.70
22290;DHT22;11313;50.116;8.424;2023-06-19T05:04:49;24.80;49.00
22290;DHT22;11313;50.116;8.424;2023-06-19T05:07:14;24.90;49.00
22290;DHT22;11313;50.116;8.424;2023-06-19T05:09:40;24.90;49.00
22290;DHT22;11313;50.116;8.424;2023-06-19T05:12:06;24.90;48.90
22290;DHT22;11313;50.116;8.424;2023-06-19T05:14:32;24.90;48.90
22290;DHT22;11313;50.116;8.424;2023-06-19T05:16:57;24.90;48.90
22290;DHT22;11313;50.116;8.424;2023-06-19T05:19:23;24.90;48.90
22290;DHT22;11313;50.116;8.424;2023-06-19T05:21:48;24.90;48.80
22290;DHT22;11313;50.116;8.424;2023-06-19T05:24:14;24.90;48.80
22290;DHT22;11313;50.116;8.424;2023-06-19T05:26:39;24.90;48.80
22290;DHT22;11313;50.116;8.424;2023-06-19T05:29:04;24.90;48.80
22290;DHT22;11313;50.116;8.424;2023-06-19T05:31:34;24.90;48.80
22290;DHT22;11313;50.116;8.424;2023-06-19T05:34:02;24.90;48.80
22290;DHT22;11313;50.116;8.424;2023-06-19T05:36:27;24.90;48.80
22290;DHT22;11313;50.116;8.424;2023-06-19T05:38:53;24.90;48.90
22290;DHT22;11313;50.116;8.424;2023-06-19T05:41:18;24.90;48.80
22290;DHT22;11313;50.116;8.424;2023-06-19T05:43:44;24.90;48.80
22290;DHT22;11313;50.116;8.424;2023-06-19T05:46:09;24.90;48.90
22290;DHT22;11313;50.116;8.424;2023-06-19T05:48:35;24.90;48.90
22290;DHT22;11313;50.116;8.424;2023-06-19T05:51:00;25.00;48.90
22290;DHT22;11313;50.116;8.424;2023-06-19T05:53:26;25.00;48.90
22290;DHT22;11313;50.116;8.424;2023-06-19T05:55:51;25.00;48.90
22290;DHT22;11313;50.116;8.424;2023-06-19T05:58:17;25.00;48.90
22290;DHT22;11313;50.116;8.424;2023-06-19T06:00:45;25.00;48.80
22290;DHT22;11313;50.116;8.424;2023-06-19T06:03:11;25.00;48.80
22290;DHT22;11313;50.116;8.424;2023-06-19T06:05:38;25.00;48.80
22290;DHT22;11313;50.116;8.424;2023-06-19T06:08:04;25.00;48.80
22290;DHT22;11313;50.116;8.424;2023-06-19T06:10:29;25.00;48.80
22290;DHT22;11313;50.116;8.424;2023-06-19T06:12:55;25.00;48.80
22290;DHT22;11313;50.116;8.424;2023-06-19T06:15:21;25.00;48.80
22290;DHT22;11313;50.116;8.424;2023-06-19T06:17:46;25.10;48.80
22290;DHT22;11313;50.116;8.424;2023-06-19T06:20:12;25.10;48.80
22290;DHT22;11313;50.116;8.424;2023-06-19T06:22:41;25.00;48.80
22290;DHT22;11313;50.116;8.424;2023-06-19T06:25:08;25.00;48.80
22290;DHT22;11313;50.116;8.424;2023-06-19T06:27:34;25.00;48.90
22290;DHT22;11313;50.116;8.424;2023-06-19T06:29:59;25.00;48.90
22290;DHT22;11313;50.116;8.424;2023-06-19T06:32:25;25.00;48.90
22290;DHT22;11313;50.116;8.424;2023-06-19T06:34:52;25.00;48.90
22290;DHT22;11313;50.116;8.424;2023-06-19T06:37:18;25.00;48.90
22290;DHT22;11313;50.116;8.424;2023-06-19T06:39:50;25.00;48.90
22290;DHT22;11313;50.116;8.424;2023-06-19T06:42:16;25.00;48.90
22290;DHT22;11313;50.116;8.424;2023-06-19T06:44:42;25.00;49.00
22290;DHT22;11313;50.116;8.424;2023-06-19T06:47:07;25.00;48.90
22290;DHT22;11313;50.116;8.424;2023-06-19T06:49:33;25.00;48.90
22290;DHT22;11313;50.116;8.424;2023-06-19T06:51:58;25.00;49.00
22290;DHT22;11313;50.116;8.424;2023-06-19T06:54:24;25.10;49.00
22290;DHT22;11313;50.116;8.424;2023-06-19T06:56:50;25.10;49.00
22290;DHT22;11313;50.116;8.424;2023-06-19T06:59:18;25.10;49.00
22290;DHT22;11313;50.116;8.424;2023-06-19T07:01:43;25.10;49.00
22290;DHT22;11313;50.116;8.424;2023-06-19T07:04:09;25.10;48.90
22290;DHT22;11313;50.116;8.424;2023-06-19T07:06:34;25.10;49.00
22290;DHT22;11313;50.116;8.424;2023-06-19T07:08:59;25.10;48.90
22290;DHT22;11313;50.116;8.424;2023-06-19T07:11:25;25.10;49.00
22290;DHT22;11313;50.116;8.424;2023-06-19T07:13:50;25.10;48.90
22290;DHT22;11313;50.116;8.424;2023-06-19T07:16:16;25.10;49.00
22290;DHT22;11313;50.116;8.424;2023-06-19T07:18:41;25.10;48.90
22290;DHT22;11313;50.116;8.424;2023-06-19T07:21:12;25.10;48.90
22290;DHT22;11313;50.116;8.424;2023-06-19T07:23:40;25.10;49.00
22290;DHT22;11313;50.116;8.424;2023-06-19T07:26:06;25.10;49.00
22290;DHT22;11313;50.116;8.424;2023-06-19T07:28:31;25.10;49.00
22290;DHT22;11313;50.116;8.424;2023-06-19T07:30:57;25.10;49.00
22290;DHT22;11313;50.116;8.424;2023-06-19T07:33:22;25.10;48.90
22290;DHT22;11313;50.116;8.424;2023-06-19T07:35:48;25.10;49.00
22290;DHT22;11313;50.116;8.424;2023-06-19T07:38:13;25.10;48.90
22290;DHT22;11313;50.116;8.424;2023-06-19T07:40:39;25.10;48.90
22290;DHT22;11313;50.116;8.424;2023-06-19T07:43:04;25.10;48.90
22290;DHT22;11313;50.116;8.424;2023-06-19T07:45:30;25.10;48.90
22290;DHT22;11313;50.116;8.424;2023-06-19T07:47:56;25.10;48.90
22290;DHT22;11313;50.116;8.424;2023-06-19T07:50:22;25.10;48.90
22290;DHT22;11313;50.116;8.424;2023-06-19T07:52:48;25.10;48.90
22290;DHT22;11313;50.116;8.424;2023-06-19T07:55:13;25.10;48.90
22290;DHT22;11313;50.116;8.424;2023-06-19T07:57:39;25.10;48.90
22290;DHT22;11313;50.116;8.424;2023-06-19T08:00:05;25.10;48.90
22290;DHT22;11313;50.116;8.424;2023-06-19T08:02:38;25.10;48.90
22290;DHT22;11313;50.116;8.424;2023-06-19T08:05:04;25.20;48.90
22290;DHT22;11313;50.116;8.424;2023-06-19T08:07:29;25.10;48.90
22290;DHT22;11313;50.116;8.424;2023-06-19T08:09:55;25.20;49.00
22290;DHT22;11313;50.116;8.424;2023-06-19T08:12:20;25.20;49.00
22290;DHT22;11313;50.116;8.424;2023-06-19T08:14:46;25.20;48.90
22290;DHT22;11313;50.116;8.424;2023-06-19T08:17:11;25.20;49.00
22290;DHT22;11313;50.116;8.424;2023-06-19T08:19:37;25.20;49.00
22290;DHT22;11313;50.116;8.424;2023-06-19T08:22:05;25.20;49.00
22290;DHT22;11313;50.116;8.424;2023-06-19T08:24:30;25.20;48.90
22290;DHT22;11313;50.116;8.424;2023-06-19T08:26:56;25.20;49.00
22290;DHT22;11313;50.116;8.424;2023-06-19T08:29:22;25.20;48.90
22290;DHT22;11313;50.116;8.424;2023-06-19T08:31:48;25.20;48.90
22290;DHT22;11313;50.116;8.424;2023-06-19T08:34:13;25.20;49.00
22290;DHT22;11313;50.116;8.424;2023-06-19T08:36:39;25.20;49.00
22290;DHT22;11313;50.116;8.424;2023-06-19T08:39:04;25.20;49.00
22290;DHT22;11313;50.116;8.424;2023-06-19T08:41:30;25.20;49.00
22290;DHT22;11313;50.116;8.424;2023-06-19T08:43:56;25.20;49.00
22290;DHT22;11313;50.116;8.424;2023-06-19T08:46:21;25.20;49.00
22290;DHT22;11313;50.116;8.424;2023-06-19T08:48:47;25.20;49.60
22290;DHT22;11313;50.116;8.424;2023-06-19T08:51:12;25.20;49.00
22290;DHT22;11313;50.116;8.424;2023-06-19T08:53:46;25.20;49.00
22290;DHT22;11313;50.116;8.424;2023-06-19T08:56:11;25.20;49.00
22290;DHT22;11313;50.116;8.424;2023-06-19T08:58:37;25.20;49.00
22290;DHT22;11313;50.116;8.424;2023-06-19T09:01:03;25.20;49.00
22290;DHT22;11313;50.116;8.424;2023-06-19T09:03:29;25.30;49.20
22290;DHT22;11313;50.116;8.424;2023-06-19T09:05:54;25.20;49.10
22290;DHT22;11313;50.116;8.424;2023-06-19T09:08:21;25.30;49.10
22290;DHT22;11313;50.116;8.424;2023-06-19T09:10:57;25.30;49.10
22290;DHT22;11313;50.116;8.424;2023-06-19T09:13:22;25.30;49.10
22290;DHT22;11313;50.116;8.424;2023-06-19T09:15:48;25.30;49.20
22290;DHT22;11313;50.116;8.424;2023-06-19T09:18:22;25.30;49.10
22290;DHT22;11313;50.116;8.424;2023-06-19T09:20:48;25.30;49.10
22290;DHT22;11313;50.116;8.424;2023-06-19T09:23:17;25.30;49.10
22290;DHT22;11313;50.116;8.424;2023-06-19T09:26:08;25.30;49.10
22290;DHT22;11313;50.116;8.424;2023-06-19T09:28:40;25.30;49.20
22290;DHT22;11313;50.116;8.424;2023-06-19T09:31:07;25.30;49.10
22290;DHT22;11313;50.116;8.424;2023-06-19T09:33:34;25.30;49.20
22290;DHT22;11313;50.116;8.424;2023-06-19T09:36:03;25.30;49.20
22290;DHT22;11313;50.116;8.424;2023-06-19T09:38:31;25.30;49.10
22290;DHT22;11313;50.116;8.424;2023-06-19T09:40:59;25.30;49.10
22290;DHT22;11313;50.116;8.424;2023-06-19T09:43:39;25.30;49.20
22290;DHT22;11313;50.116;8.424;2023-06-19T09:46:06;25.30;49.20
22290;DHT22;11313;50.116;8.424;2023-06-19T09:48:32;25.30;49.20
22290;DHT22;11313;50.116;8.424;2023-06-19T09:53:31;25.30;49.20
22290;DHT22;11313;50.116;8.424;2023-06-19T09:55:57;25.30;49.20
22290;DHT22;11313;50.116;8.424;2023-06-19T09:58:23;25.30;49.20
22290;DHT22;11313;50.116;8.424;2023-06-19T10:00:49;25.30;49.20
22290;DHT22;11313;50.116;8.424;2023-06-19T10:03:16;25.30;49.20
22290;DHT22;11313;50.116;8.424;2023-06-19T10:05:42;25.30;49.20
22290;DHT22;11313;50.116;8.424;2023-06-19T10:08:07;25.30;49.20
22290;DHT22;11313;50.116;8.424;2023-06-19T10:10:34;25.40;49.30
22290;DHT22;11313;50.116;8.424;2023-06-19T10:13:12;25.40;49.20
22290;DHT22;11313;50.116;8.424;2023-06-19T10:15:41;25.40;49.30
22290;DHT22;11313;50.116;8.424;2023-06-19T10:18:12;25.30;49.20
22290;DHT22;11313;50.116;8.424;2023-06-19T10:20:38;25.40;49.30
22290;DHT22;11313;50.116;8.424;2023-06-19T10:23:10;25.40;49.30
22290;DHT22;11313;50.116;8.424;2023-06-19T10:25:40;25.40;49.30
22290;DHT22;11313;50.116;8.424;2023-06-19T10:30:52;25.40;49.30
22290;DHT22;11313;50.116;8.424;2023-06-19T10:33:18;25.40;49.40
22290;DHT22;11313;50.116;8.424;2023-06-19T10:35:44;25.40;49.30
22290;DHT22;11313;50.116;8.424;2023-06-19T10:38:09;25.40;49.30
22290;DHT22;11313;50.116;8.424;2023-06-19T10:40:39;25.40;49.30
22290;DHT22;11313;50.116;8.424;2023-06-19T10:43:04;25.40;49.20
22290;DHT22;11313;50.116;8.424;2023-06-19T10:45:30;25.40;49.30
22290;DHT22;11313;50.116;8.424;2023-06-19T10:47:56;25.40;49.20
22290;DHT22;11313;50.116;8.424;2023-06-19T10:50:22;25.40;49.20
22290;DHT22;11313;50.116;8.424;2023-06-19T10:52:48;25.40;49.20
22290;DHT22;11313;50.116;8.424;2023-06-19T10:55:14;25.40;49.20
22290;DHT22;11313;50.116;8.424;2023-06-19T10:57:44;25.40;49.20
22290;DHT22;11313;50.116;8.424;2023-06-19T11:00:10;25.50;49.30
22290;DHT22;11313;50.116;8.424;2023-06-19T11:02:40;25.50;49.30
22290;DHT22;11313;50.116;8.424;2023-06-19T11:05:12;25.40;49.20
22290;DHT22;11313;50.116;8.424;2023-06-19T11:07:37;25.50;49.30
22290;DHT22;11313;50.116;8.424;2023-06-19T11:10:04;25.50;49.30
22290;DHT22;11313;50.116;8.424;2023-06-19T11:12:31;25.50;49.30
22290;DHT22;11313;50.116;8.424;2023-06-19T11:14:57;25.50;49.30
22290;DHT22;11313;50.116;8.424;2023-06-19T11:17:23;25.50;49.30
22290;DHT22;11313;50.116;8.424;2023-06-19T11:19:50;25.50;49.30
22290;DHT22;11313;50.116;8.424;2023-06-19T11:22:15;25.50;49.30
22290;DHT22;11313;50.116;8.424;2023-06-19T11:24:46;25.50;49.30
22290;DHT22;11313;50.116;8.424;2023-06-19T11:27:17;25.50;49.30
22290;DHT22;11313;50.116;8.424;2023-06-19T11:29:43;25.50;49.30
22290;DHT22;11313;50.116;8.424;2023-06-19T11:32:13;25.50;49.30
22290;DHT22;11313;50.116;8.424;2023-06-19T11:34:39;25.50;49.30
22290;DHT22;11313;50.116;8.424;2023-06-19T11:37:14;25.50;49.30
22290;DHT22;11313;50.116;8.424;2023-06-19T11:39:43;25.50;49.30
22290;DHT22;11313;50.116;8.424;2023-06-19T11:42:08;25.50;49.30
22290;DHT22;11313;50.116;8.424;2023-06-19T11:44:34;25.50;49.30
22290;DHT22;11313;50.116;8.424;2023-06-19T11:47:00;25.50;49.30
22290;DHT22;11313;50.116;8.424;2023-06-19T11:49:27;25.50;49.30
22290;DHT22;11313;50.116;8.424;2023-06-19T11:51:57;25.50;49.30
22290;DHT22;11313;50.116;8.424;2023-06-19T11:54:23;25.50;49.30
22290;DHT22;11313;50.116;8.424;2023-06-19T11:56:48;25.50;49.30
22290;DHT22;11313;50.116;8.424;2023-06-19T11:59:14;25.50;49.30
22290;DHT22;11313;50.116;8.424;2023-06-19T12:01:40;25.50;49.30
22290;DHT22;11313;50.116;8.424;2023-06-19T12:04:06;25.50;49.30
22290;DHT22;11313;50.116;8.424;2023-06-19T12:06:32;25.50;49.30
22290;DHT22;11313;50.116;8.424;2023-06-19T12:08:58;25.50;49.20
22290;DHT22;11313;50.116;8.424;2023-06-19T12:11:24;25.50;49.20
22290;DHT22;11313;50.116;8.424;2023-06-19T12:13:50;25.50;49.30
22290;DHT22;11313;50.116;8.424;2023-06-19T12:16:15;25.50;49.20
22290;DHT22;11313;50.116;8.424;2023-06-19T12:18:41;25.50;49.30
22290;DHT22;11313;50.116;8.424;2023-06-19T12:21:07;25.60;49.30
22290;DHT22;11313;50.116;8.424;2023-06-19T12:23:32;25.50;49.20
22290;DHT22;11313;50.116;8.424;2023-06-19T12:25:58;25.50;49.20
22290;DHT22;11313;50.116;8.424;2023-06-19T12:28:23;25.50;49.20
22290;DHT22;11313;50.116;8.424;2023-06-19T12:30:51;25.50;49.20
22290;DHT22;11313;50.116;8.424;2023-06-19T12:33:20;25.50;49.20
22290;DHT22;11313;50.116;8.424;2023-06-19T12:35:47;25.50;49.20
22290;DHT22;11313;50.116;8.424;2023-06-19T12:38:12;25.50;49.20
22290;DHT22;11313;50.116;8.424;2023-06-19T12:40:38;25.50;49.20
22290;DHT22;11313;50.116;8.424;2023-06-19T12:43:04;25.50;49.20
22290;DHT22;11313;50.116;8.424;2023-06-19T12:45:30;25.50;49.30
22290;DHT22;11313;50.116;8.424;2023-06-19T12:47:55;25.50;49.20
22290;DHT22;11313;50.116;8.424;2023-06-19T12:50:21;25.50;49.20
22290;DHT22;11313;50.116;8.424;2023-06-19T12:52:47;25.50;49.30
22290;DHT22;11313;50.116;8.424;2023-06-19T12:55:13;25.50;49.30
22290;DHT22;11313;50.116;8.424;2023-06-19T12:57:38;25.50;49.30
22290;DHT22;11313;50.116;8.424;2023-06-19T13:00:09;25.50;49.30
22290;DHT22;11313;50.116;8.424;2023-06-19T13:02:35;25.50;49.30
22290;DHT22;11313;50.116;8.424;2023-06-19T13:05:01;25.50;49.30
22290;DHT22;11313;50.116;8.424;2023-06-19T13:07:26;25.50;49.30
22290;DHT22;11313;50.116;8.424;2023-06-19T13:09:51;25.40;49.30
22290;DHT22;11313;50.116;8.424;2023-06-19T13:12:17;25.40;49.30
22290;DHT22;11313;50.116;8.424;2023-06-19T13:14:42;25.40;49.30
22290;DHT22;11313;50.116;8.424;2023-06-19T13:17:08;25.40;49.30
22290;DHT22;11313;50.116;8.424;2023-06-19T13:19:34;25.40;49.40
22290;DHT22;11313;50.116;8.424;2023-06-19T13:21:59;25.40;49.40
22290;DHT22;11313;50.116;8.424;2023-06-19T13:24:25;25.40;49.40
22290;DHT22;11313;50.116;8.424;2023-06-19T13:26:53;25.40;49.40
22290;DHT22;11313;50.116;8.424;2023-06-19T13:29:18;25.40;49.50
22290;DHT22;11313;50.116;8.424;2023-06-19T13:31:44;25.40;49.50
22290;DHT22;11313;50.116;8.424;2023-06-19T13:34:10;25.40;49.50
22290;DHT22;11313;50.116;8.424;2023-06-19T13:36:35;25.40;49.50
22290;DHT22;11313;50.116;8.424;2023-06-19T13:39:01;25.30;49.50
22290;DHT22;11313;50.116;8.424;2023-06-19T13:41:26;25.40;49.60
22290;DHT22;11313;50.116;8.424;2023-06-19T13:43:53;25.30;49.50
22290;DHT22;11313;50.116;8.424;2023-06-19T13:46:19;25.30;49.50
22290;DHT22;11313;50.116;8.424;2023-06-19T13:48:46;25.30;49.50
22290;DHT22;11313;50.116;8.424;2023-06-19T13:51:16;25.30;49.50
22290;DHT22;11313;50.116;8.424;2023-06-19T13:53:41;25.30;49.60
22290;DHT22;11313;50.116;8.424;2023-06-19T13:56:07;25.30;49.60
22290;DHT22;11313;50.116;8.424;2023-06-19T13:58:32;25.30;49.90
22290;DHT22;11313;50.116;8.424;2023-06-19T14:00:58;25.30;49.80
22290;DHT22;11313;50.116;8.424;2023-06-19T14:03:23;25.30;49.80
22290;DHT22;11313;50.116;8.424;2023-06-19T14:05:49;25.30;49.80
22290;DHT22;11313;50.116;8.424;2023-06-19T14:08:15;25.30;49.80
22290;DHT22;11313;50.116;8.424;2023-06-19T14:10:40;25.30;49.80
22290;DHT22;11313;50.116;8.424;2023-06-19T14:13:06;25.30;49.80
22290;DHT22;11313;50.116;8.424;2023-06-19T14:15:31;25.30;49.90
22290;DHT22;11313;50.116;8.424;2023-06-19T14:17:57;25.30;49.90
22290;DHT22;11313;50.116;8.424;2023-06-19T14:20:22;25.20;49.80
22290;DHT22;11313;50.116;8.424;2023-06-19T14:22:48;25.20;49.80
22290;DHT22;11313;50.116;8.424;2023-06-19T14:25:13;25.20;49.80
22290;DHT22;11313;50.116;8.424;2023-06-19T14:27:39;25.30;50.00
22290;DHT22;11313;50.116;8.424;2023-06-19T14:30:05;25.20;50.00
22290;DHT22;11313;50.116;8.424;2023-06-19T14:32:33;25.20;50.00
22290;DHT22;11313;50.116;8.424;2023-06-19T14:34:59;25.20;49.90
22290;DHT22;11313;50.116;8.424;2023-06-19T14:37:24;25.20;49.90
22290;DHT22;11313;50.116;8.424;2023-06-19T14:39:50;25.20;50.00
22290;DHT22;11313;50.116;8.424;2023-06-19T14:42:15;25.20;50.00
22290;DHT22;11313;50.116;8.424;2023-06-19T14:44:40;25.30;50.00
22290;DHT22;11313;50.116;8.424;2023-06-19T14:47:06;25.10;49.90
22290;DHT22;11313;50.116;8.424;2023-06-19T14:49:32;25.10;50.00
22290;DHT22;11313;50.116;8.424;2023-06-19T14:51:57;25.10;50.00
22290;DHT22;11313;50.116;8.424;2023-06-19T14:54:23;25.20;50.10
22290;DHT22;11313;50.116;8.424;2023-06-19T14:56:49;25.10;50.00
22290;DHT22;11313;50.116;8.424;2023-06-19T14:59:15;25.10;50.00
22290;DHT22;11313;50.116;8.424;2023-06-19T15:01:41;25.10;50.00
22290;DHT22;11313;50.116;8.424;2023-06-19T15:04:06;25.10;50.00
22290;DHT22;11313;50.116;8.424;2023-06-19T15:06:32;25.10;50.10
22290;DHT22;11313;50.116;8.424;2023-06-19T15:08:58;25.10;50.10
22290;DHT22;11313;50.116;8.424;2023-06-19T15:11:23;25.10;50.20
22290;DHT22;11313;50.116;8.424;2023-06-19T15:13:49;25.10;50.10
22290;DHT22;11313;50.116;8.424;2023-06-19T15:16:14;25.10;50.20
22290;DHT22;11313;50.116;8.424;2023-06-19T15:18:40;25.10;50.20
22290;DHT22;11313;50.116;8.424;2023-06-19T15:21:06;25.10;50.20
22290;DHT22;11313;50.116;8.424;2023-06-19T15:23:33;25.10;50.20
22290;DHT22;11313;50.116;8.424;2023-06-19T15:25:58;25.10;50.30
22290;DHT22;11313;50.116;8.424;2023-06-19T15:28:24;25.10;50.50
22290;DHT22;11313;50.116;8.424;2023-06-19T15:30:50;25.10;50.40